sensor_id;sensor_type;location;lat;lon;timestamp;P1;durP1;ratioP1;P2;durP2;ratioP2
22080;SDS011;11207;59.512;18.050;2023-02-25T00:00:44;6.13;;;5.43;;
22080;SDS011;11207;59.512;18.050;2023-02-25T00:03:10;6.03;;;5.47;;
22080;SDS011;11207;59.512;18.050;2023-02-25T00:05:39;5.90;;;5.40;;
22080;SDS011;11207;59.512;18.050;2023-02-25T00:08:06;6.50;;;5.73;;
22080;SDS011;11207;59.512;18.050;2023-02-25T00:10:32;5.60;;;5.07;;
22080;SDS011;11207;59.512;18.050;2023-02-25T00:12:58;5.70;;;4.97;;
22080;SDS011;11207;59.512;18.050;2023-02-25T00:15:24;6.37;;;5.37;;
22080;SDS011;11207;59.512;18.050;2023-02-25T00:17:50;7.83;;;5.53;;
22080;SDS011;11207;59.512;18.050;2023-02-25T00:20:16;5.97;;;5.37;;
22080;SDS011;11207;59.512;18.050;2023-02-25T00:22:46;5.73;;;5.17;;
22080;SDS011;11207;59.512;18.050;2023-02-25T00:25:14;5.57;;;5.07;;
22080;SDS011;11207;59.512;18.050;2023-02-25T00:27:41;7.53;;;5.20;;
22080;SDS011;11207;59.512;18.050;2023-02-25T00:30:07;7.70;;;5.90;;
22080;SDS011;11207;59.512;18.050;2023-02-25T00:32:34;7.03;;;5.87;;
22080;SDS011;11207;59.512;18.050;2023-02-25T00:35:01;7.33;;;5.93;;
22080;SDS011;11207;59.512;18.050;2023-02-25T00:37:28;7.20;;;5.33;;
22080;SDS011;11207;59.512;18.050;2023-02-25T00:39:53;8.77;;;5.80;;
22080;SDS011;11207;59.512;18.050;2023-02-25T00:42:19;9.90;;;6.23;;
22080;SDS011;11207;59.512;18.050;2023-02-25T00:44:45;8.97;;;6.57;;
22080;SDS011;11207;59.512;18.050;2023-02-25T00:47:12;9.27;;;6.10;;
22080;SDS011;11207;59.512;18.050;2023-02-25T00:49:38;6.70;;;6.00;;
22080;SDS011;11207;59.512;18.050;2023-02-25T00:52:04;7.73;;;5.80;;
22080;SDS011;11207;59.512;18.050;2023-02-25T00:54:32;8.67;;;5.90;;
22080;SDS011;11207;59.512;18.050;2023-02-25T00:56:58;8.27;;;6.10;;
22080;SDS011;11207;59.512;18.050;2023-02-25T00:59:24;9.87;;;6.30;;
22080;SDS011;11207;59.512;18.050;2023-02-25T01:01:50;6.60;;;5.60;;
22080;SDS011;11207;59.512;18.050;2023-02-25T01:04:15;6.60;;;6.00;;
22080;SDS011;11207;59.512;18.050;2023-02-25T01:06:41;8.77;;;5.60;;
22080;SDS011;11207;59.512;18.050;2023-02-25T01:09:07;11.17;;;6.40;;
22080;SDS011;11207;59.512;18.050;2023-02-25T01:11:38;8.40;;;5.87;;
22080;SDS011;11207;59.512;18.050;2023-02-25T01:14:08;8.37;;;6.23;;
22080;SDS011;11207;59.512;18.050;2023-02-25T01:16:36;9.27;;;6.80;;
22080;SDS011;11207;59.512;18.050;2023-02-25T01:19:04;9.10;;;6.90;;
22080;SDS011;11207;59.512;18.050;2023-02-25T01:21:38;12.77;;;7.03;;
22080;SDS011;11207;59.512;18.050;2023-02-25T01:24:06;10.23;;;6.63;;
22080;SDS011;11207;59.512;18.050;2023-02-25T01:26:36;11.10;;;6.90;;
22080;SDS011;11207;59.512;18.050;2023-02-25T01:29:07;10.47;;;7.80;;
22080;SDS011;11207;59.512;18.050;2023-02-25T01:31:34;11.93;;;7.43;;
22080;SDS011;11207;59.512;18.050;2023-02-25T01:34:02;13.13;;;7.63;;
22080;SDS011;11207;59.512;18.050;2023-02-25T01:36:29;12.93;;;6.93;;
22080;SDS011;11207;59.512;18.050;2023-02-25T01:38:55;11.03;;;7.03;;
22080;SDS011;11207;59.512;18.050;2023-02-25T01:41:22;13.17;;;6.57;;
22080;SDS011;11207;59.512;18.050;2023-02-25T01:44:02;11.90;;;7.40;;
22080;SDS011;11207;59.512;18.050;2023-02-25T01:46:28;11.67;;;6.20;;
22080;SDS011;11207;59.512;18.050;2023-02-25T01:48:54;7.87;;;6.33;;
22080;SDS011;11207;59.512;18.050;2023-02-25T01:51:20;11.00;;;6.30;;
22080;SDS011;11207;59.512;18.050;2023-02-25T01:53:47;9.43;;;6.20;;
22080;SDS011;11207;59.512;18.050;2023-02-25T01:56:15;7.33;;;6.27;;
22080;SDS011;11207;59.512;18.050;2023-02-25T01:58:44;10.77;;;6.03;;
22080;SDS011;11207;59.512;18.050;2023-02-25T02:01:12;8.30;;;6.20;;
22080;SDS011;11207;59.512;18.050;2023-02-25T02:03:41;10.73;;;6.10;;
22080;SDS011;11207;59.512;18.050;2023-02-25T02:06:18;7.73;;;5.57;;
22080;SDS011;11207;59.512;18.050;2023-02-25T02:08:52;6.13;;;5.40;;
22080;SDS011;11207;59.512;18.050;2023-02-25T02:11:18;8.77;;;6.00;;
22080;SDS011;11207;59.512;18.050;2023-02-25T02:13:46;8.53;;;5.60;;
22080;SDS011;11207;59.512;18.050;2023-02-25T02:19:20;8.60;;;5.13;;
22080;SDS011;11207;59.512;18.050;2023-02-25T02:22:50;9.17;;;5.50;;
22080;SDS011;11207;59.512;18.050;2023-02-25T02:27:54;7.80;;;4.87;;
22080;SDS011;11207;59.512;18.050;2023-02-25T02:36:39;8.23;;;5.50;;
22080;SDS011;11207;59.512;18.050;2023-02-25T02:39:21;6.20;;;4.70;;
22080;SDS011;11207;59.512;18.050;2023-02-25T02:42:17;5.63;;;4.77;;
22080;SDS011;11207;59.512;18.050;2023-02-25T02:45:00;7.03;;;4.80;;
22080;SDS011;11207;59.512;18.050;2023-02-25T02:47:38;6.57;;;4.73;;
22080;SDS011;11207;59.512;18.050;2023-02-25T02:50:16;5.50;;;4.60;;
22080;SDS011;11207;59.512;18.050;2023-02-25T02:52:50;4.70;;;4.30;;
22080;SDS011;11207;59.512;18.050;2023-02-25T02:57:58;5.43;;;4.47;;
22080;SDS011;11207;59.512;18.050;2023-02-25T03:00:35;5.73;;;4.30;;
22080;SDS011;11207;59.512;18.050;2023-02-25T03:03:06;4.87;;;4.47;;
22080;SDS011;11207;59.512;18.050;2023-02-25T03:05:35;6.00;;;4.43;;
22080;SDS011;11207;59.512;18.050;2023-02-25T03:08:08;4.83;;;4.40;;
22080;SDS011;11207;59.512;18.050;2023-02-25T03:10:38;4.50;;;4.10;;
22080;SDS011;11207;59.512;18.050;2023-02-25T03:13:04;4.80;;;3.87;;
22080;SDS011;11207;59.512;18.050;2023-02-25T03:15:30;5.00;;;3.93;;
22080;SDS011;11207;59.512;18.050;2023-02-25T03:17:58;7.63;;;4.07;;
22080;SDS011;11207;59.512;18.050;2023-02-25T03:20:42;7.30;;;4.07;;
22080;SDS011;11207;59.512;18.050;2023-02-25T03:23:14;4.33;;;3.70;;
22080;SDS011;11207;59.512;18.050;2023-02-25T03:25:49;3.87;;;3.60;;
22080;SDS011;11207;59.512;18.050;2023-02-25T03:28:29;4.20;;;3.73;;
22080;SDS011;11207;59.512;18.050;2023-02-25T03:31:02;11.23;;;4.23;;
22080;SDS011;11207;59.512;18.050;2023-02-25T03:33:35;3.90;;;3.63;;
22080;SDS011;11207;59.512;18.050;2023-02-25T03:36:12;6.20;;;3.80;;
22080;SDS011;11207;59.512;18.050;2023-02-25T03:38:44;3.90;;;3.70;;
22080;SDS011;11207;59.512;18.050;2023-02-25T03:41:14;5.50;;;3.53;;
22080;SDS011;11207;59.512;18.050;2023-02-25T03:43:45;3.63;;;3.20;;
22080;SDS011;11207;59.512;18.050;2023-02-25T03:46:14;3.93;;;3.60;;
22080;SDS011;11207;59.512;18.050;2023-02-25T03:48:42;5.20;;;3.70;;
22080;SDS011;11207;59.512;18.050;2023-02-25T03:51:09;3.97;;;3.57;;
22080;SDS011;11207;59.512;18.050;2023-02-25T03:53:38;6.50;;;3.40;;
22080;SDS011;11207;59.512;18.050;2023-02-25T03:56:05;4.30;;;3.53;;
22080;SDS011;11207;59.512;18.050;2023-02-25T03:58:34;4.03;;;3.57;;
22080;SDS011;11207;59.512;18.050;2023-02-25T04:01:03;4.20;;;3.50;;
22080;SDS011;11207;59.512;18.050;2023-02-25T04:03:31;3.97;;;3.70;;
22080;SDS011;11207;59.512;18.050;2023-02-25T04:05:57;4.40;;;4.00;;
22080;SDS011;11207;59.512;18.050;2023-02-25T04:08:22;3.93;;;3.70;;
22080;SDS011;11207;59.512;18.050;2023-02-25T04:10:48;6.70;;;3.70;;
22080;SDS011;11207;59.512;18.050;2023-02-25T04:13:14;6.10;;;4.03;;
22080;SDS011;11207;59.512;18.050;2023-02-25T04:15:40;4.00;;;3.60;;
22080;SDS011;11207;59.512;18.050;2023-02-25T04:18:07;4.27;;;3.97;;
22080;SDS011;11207;59.512;18.050;2023-02-25T04:20:33;4.10;;;3.80;;
22080;SDS011;11207;59.512;18.050;2023-02-25T04:22:59;3.80;;;3.50;;
22080;SDS011;11207;59.512;18.050;2023-02-25T04:25:25;4.63;;;4.33;;
22080;SDS011;11207;59.512;18.050;2023-02-25T04:27:51;4.00;;;3.60;;
22080;SDS011;11207;59.512;18.050;2023-02-25T04:30:17;4.43;;;4.03;;
22080;SDS011;11207;59.512;18.050;2023-02-25T04:32:43;5.40;;;4.03;;
22080;SDS011;11207;59.512;18.050;2023-02-25T04:35:08;5.53;;;3.73;;
22080;SDS011;11207;59.512;18.050;2023-02-25T04:37:38;7.20;;;4.03;;
22080;SDS011;11207;59.512;18.050;2023-02-25T04:40:04;3.90;;;3.60;;
22080;SDS011;11207;59.512;18.050;2023-02-25T04:42:37;3.80;;;3.60;;
22080;SDS011;11207;59.512;18.050;2023-02-25T04:45:03;3.97;;;3.60;;
22080;SDS011;11207;59.512;18.050;2023-02-25T04:47:30;4.50;;;3.93;;
22080;SDS011;11207;59.512;18.050;2023-02-25T04:49:56;3.70;;;3.50;;
22080;SDS011;11207;59.512;18.050;2023-02-25T04:52:22;4.40;;;3.43;;
22080;SDS011;11207;59.512;18.050;2023-02-25T04:54:47;4.27;;;3.80;;
22080;SDS011;11207;59.512;18.050;2023-02-25T04:57:13;3.70;;;3.40;;
22080;SDS011;11207;59.512;18.050;2023-02-25T04:59:39;4.17;;;3.70;;
22080;SDS011;11207;59.512;18.050;2023-02-25T05:02:05;3.57;;;3.37;;
22080;SDS011;11207;59.512;18.050;2023-02-25T05:04:31;4.63;;;4.23;;
22080;SDS011;11207;59.512;18.050;2023-02-25T05:06:58;4.33;;;3.77;;
22080;SDS011;11207;59.512;18.050;2023-02-25T05:09:24;3.30;;;3.10;;
22080;SDS011;11207;59.512;18.050;2023-02-25T05:11:50;4.13;;;3.77;;
22080;SDS011;11207;59.512;18.050;2023-02-25T05:14:16;3.60;;;3.30;;
22080;SDS011;11207;59.512;18.050;2023-02-25T05:16:41;3.50;;;3.20;;
22080;SDS011;11207;59.512;18.050;2023-02-25T05:19:07;3.60;;;3.40;;
22080;SDS011;11207;59.512;18.050;2023-02-25T05:21:33;3.60;;;3.40;;
22080;SDS011;11207;59.512;18.050;2023-02-25T05:23:59;3.63;;;3.30;;
22080;SDS011;11207;59.512;18.050;2023-02-25T05:26:24;4.20;;;3.70;;
22080;SDS011;11207;59.512;18.050;2023-02-25T05:28:55;5.67;;;3.60;;
22080;SDS011;11207;59.512;18.050;2023-02-25T05:31:21;5.87;;;3.50;;
22080;SDS011;11207;59.512;18.050;2023-02-25T05:33:48;3.60;;;3.40;;
22080;SDS011;11207;59.512;18.050;2023-02-25T05:36:15;4.93;;;3.73;;
22080;SDS011;11207;59.512;18.050;2023-02-25T05:38:41;4.00;;;3.67;;
22080;SDS011;11207;59.512;18.050;2023-02-25T05:41:07;4.07;;;3.70;;
22080;SDS011;11207;59.512;18.050;2023-02-25T05:43:35;3.97;;;3.63;;
22080;SDS011;11207;59.512;18.050;2023-02-25T05:46:01;5.03;;;3.53;;
22080;SDS011;11207;59.512;18.050;2023-02-25T05:48:29;4.47;;;3.63;;
22080;SDS011;11207;59.512;18.050;2023-02-25T05:51:02;3.70;;;3.40;;
22080;SDS011;11207;59.512;18.050;2023-02-25T05:53:30;3.90;;;3.60;;
22080;SDS011;11207;59.512;18.050;2023-02-25T05:55:56;4.63;;;3.40;;
22080;SDS011;11207;59.512;18.050;2023-02-25T05:58:22;3.77;;;3.47;;
22080;SDS011;11207;59.512;18.050;2023-02-25T06:00:48;5.67;;;3.80;;
22080;SDS011;11207;59.512;18.050;2023-02-25T06:03:14;7.53;;;4.07;;
22080;SDS011;11207;59.512;18.050;2023-02-25T06:05:40;4.03;;;3.67;;
22080;SDS011;11207;59.512;18.050;2023-02-25T06:08:07;4.13;;;3.70;;
22080;SDS011;11207;59.512;18.050;2023-02-25T06:10:34;3.50;;;3.17;;
22080;SDS011;11207;59.512;18.050;2023-02-25T06:13:09;3.50;;;3.30;;
22080;SDS011;11207;59.512;18.050;2023-02-25T06:15:39;5.90;;;3.50;;
22080;SDS011;11207;59.512;18.050;2023-02-25T06:18:06;5.87;;;3.50;;
22080;SDS011;11207;59.512;18.050;2023-02-25T06:20:32;4.50;;;3.40;;
22080;SDS011;11207;59.512;18.050;2023-02-25T06:22:59;5.07;;;3.50;;
22080;SDS011;11207;59.512;18.050;2023-02-25T06:25:25;4.80;;;3.47;;
22080;SDS011;11207;59.512;18.050;2023-02-25T06:27:54;8.20;;;4.17;;
22080;SDS011;11207;59.512;18.050;2023-02-25T06:30:23;3.60;;;3.40;;
22080;SDS011;11207;59.512;18.050;2023-02-25T06:32:49;6.63;;;3.47;;
22080;SDS011;11207;59.512;18.050;2023-02-25T06:35:15;5.27;;;3.97;;
22080;SDS011;11207;59.512;18.050;2023-02-25T06:37:42;3.60;;;3.40;;
22080;SDS011;11207;59.512;18.050;2023-02-25T06:40:08;4.20;;;3.80;;
22080;SDS011;11207;59.512;18.050;2023-02-25T06:42:36;4.70;;;3.50;;
22080;SDS011;11207;59.512;18.050;2023-02-25T06:45:02;4.20;;;3.80;;
22080;SDS011;11207;59.512;18.050;2023-02-25T06:47:28;4.00;;;3.60;;
22080;SDS011;11207;59.512;18.050;2023-02-25T06:49:54;5.80;;;4.07;;
22080;SDS011;11207;59.512;18.050;2023-02-25T06:52:21;7.63;;;3.93;;
22080;SDS011;11207;59.512;18.050;2023-02-25T06:54:48;4.93;;;3.50;;
22080;SDS011;11207;59.512;18.050;2023-02-25T06:57:14;4.83;;;3.47;;
22080;SDS011;11207;59.512;18.050;2023-02-25T06:59:39;9.43;;;3.37;;
22080;SDS011;11207;59.512;18.050;2023-02-25T07:02:05;4.10;;;3.50;;
22080;SDS011;11207;59.512;18.050;2023-02-25T07:04:32;3.70;;;3.50;;
22080;SDS011;11207;59.512;18.050;2023-02-25T07:06:58;4.33;;;3.90;;
22080;SDS011;11207;59.512;18.050;2023-02-25T07:09:24;3.70;;;3.33;;
22080;SDS011;11207;59.512;18.050;2023-02-25T07:11:50;4.57;;;4.17;;
22080;SDS011;11207;59.512;18.050;2023-02-25T07:14:15;4.70;;;4.17;;
22080;SDS011;11207;59.512;18.050;2023-02-25T07:16:41;8.27;;;3.80;;
22080;SDS011;11207;59.512;18.050;2023-02-25T07:19:06;8.03;;;4.10;;
22080;SDS011;11207;59.512;18.050;2023-02-25T07:21:32;9.07;;;4.13;;
22080;SDS011;11207;59.512;18.050;2023-02-25T07:23:58;4.20;;;3.80;;
22080;SDS011;11207;59.512;18.050;2023-02-25T07:26:24;4.33;;;3.80;;
22080;SDS011;11207;59.512;18.050;2023-02-25T07:28:52;4.27;;;3.60;;
22080;SDS011;11207;59.512;18.050;2023-02-25T07:31:22;6.07;;;3.77;;
22080;SDS011;11207;59.512;18.050;2023-02-25T07:33:48;5.13;;;4.50;;
22080;SDS011;11207;59.512;18.050;2023-02-25T07:36:14;6.63;;;3.87;;
22080;SDS011;11207;59.512;18.050;2023-02-25T07:38:40;6.60;;;3.93;;
22080;SDS011;11207;59.512;18.050;2023-02-25T07:41:08;5.50;;;4.30;;
22080;SDS011;11207;59.512;18.050;2023-02-25T07:43:36;4.00;;;3.70;;
22080;SDS011;11207;59.512;18.050;2023-02-25T07:46:02;9.17;;;4.37;;
22080;SDS011;11207;59.512;18.050;2023-02-25T07:48:28;5.10;;;3.83;;
22080;SDS011;11207;59.512;18.050;2023-02-25T07:50:54;5.53;;;3.60;;
22080;SDS011;11207;59.512;18.050;2023-02-25T07:53:20;3.70;;;3.40;;
22080;SDS011;11207;59.512;18.050;2023-02-25T07:55:47;4.87;;;3.50;;
22080;SDS011;11207;59.512;18.050;2023-02-25T07:58:14;6.80;;;3.77;;
22080;SDS011;11207;59.512;18.050;2023-02-25T08:00:40;4.97;;;3.77;;
22080;SDS011;11207;59.512;18.050;2023-02-25T08:03:06;7.50;;;4.80;;
22080;SDS011;11207;59.512;18.050;2023-02-25T08:05:35;6.87;;;4.17;;
22080;SDS011;11207;59.512;18.050;2023-02-25T08:08:02;5.20;;;3.80;;
22080;SDS011;11207;59.512;18.050;2023-02-25T08:10:29;4.00;;;3.57;;
22080;SDS011;11207;59.512;18.050;2023-02-25T08:12:54;4.80;;;3.77;;
22080;SDS011;11207;59.512;18.050;2023-02-25T08:15:20;6.93;;;4.70;;
22080;SDS011;11207;59.512;18.050;2023-02-25T08:17:45;6.27;;;3.97;;
22080;SDS011;11207;59.512;18.050;2023-02-25T08:20:15;8.77;;;4.30;;
22080;SDS011;11207;59.512;18.050;2023-02-25T08:22:41;5.57;;;3.43;;
22080;SDS011;11207;59.512;18.050;2023-02-25T08:25:07;8.67;;;3.97;;
22080;SDS011;11207;59.512;18.050;2023-02-25T08:27:33;5.83;;;3.70;;
22080;SDS011;11207;59.512;18.050;2023-02-25T08:30:00;7.10;;;4.00;;
22080;SDS011;11207;59.512;18.050;2023-02-25T08:32:25;11.57;;;4.17;;
22080;SDS011;11207;59.512;18.050;2023-02-25T08:34:51;5.70;;;4.00;;
22080;SDS011;11207;59.512;18.050;2023-02-25T08:37:17;5.83;;;4.00;;
22080;SDS011;11207;59.512;18.050;2023-02-25T08:39:43;6.27;;;4.07;;
22080;SDS011;11207;59.512;18.050;2023-02-25T08:42:09;9.20;;;4.90;;
22080;SDS011;11207;59.512;18.050;2023-02-25T08:44:42;8.43;;;3.93;;
22080;SDS011;11207;59.512;18.050;2023-02-25T08:47:08;10.53;;;4.47;;
22080;SDS011;11207;59.512;18.050;2023-02-25T08:49:34;5.13;;;4.00;;
22080;SDS011;11207;59.512;18.050;2023-02-25T08:51:59;4.87;;;3.90;;
22080;SDS011;11207;59.512;18.050;2023-02-25T08:54:25;6.17;;;4.10;;
22080;SDS011;11207;59.512;18.050;2023-02-25T08:56:50;7.00;;;4.10;;
22080;SDS011;11207;59.512;18.050;2023-02-25T08:59:18;5.77;;;3.93;;
22080;SDS011;11207;59.512;18.050;2023-02-25T09:01:43;7.53;;;4.00;;
22080;SDS011;11207;59.512;18.050;2023-02-25T09:04:10;5.97;;;3.93;;
22080;SDS011;11207;59.512;18.050;2023-02-25T09:06:37;5.07;;;3.50;;
22080;SDS011;11207;59.512;18.050;2023-02-25T09:09:03;5.73;;;3.87;;
22080;SDS011;11207;59.512;18.050;2023-02-25T09:11:29;8.90;;;4.10;;
22080;SDS011;11207;59.512;18.050;2023-02-25T09:13:56;7.13;;;4.00;;
22080;SDS011;11207;59.512;18.050;2023-02-25T09:16:22;6.17;;;4.47;;
22080;SDS011;11207;59.512;18.050;2023-02-25T09:18:48;8.70;;;3.60;;
22080;SDS011;11207;59.512;18.050;2023-02-25T09:21:15;12.13;;;4.10;;
22080;SDS011;11207;59.512;18.050;2023-02-25T09:23:42;7.13;;;3.90;;
22080;SDS011;11207;59.512;18.050;2023-02-25T09:26:07;5.47;;;4.10;;
22080;SDS011;11207;59.512;18.050;2023-02-25T09:28:36;6.10;;;3.80;;
22080;SDS011;11207;59.512;18.050;2023-02-25T09:31:01;10.67;;;4.20;;
22080;SDS011;11207;59.512;18.050;2023-02-25T09:33:28;4.17;;;3.43;;
22080;SDS011;11207;59.512;18.050;2023-02-25T09:36:02;10.23;;;4.33;;
22080;SDS011;11207;59.512;18.050;2023-02-25T09:38:33;8.87;;;4.47;;
22080;SDS011;11207;59.512;18.050;2023-02-25T09:40:59;9.40;;;4.20;;
22080;SDS011;11207;59.512;18.050;2023-02-25T09:43:43;12.00;;;5.07;;
22080;SDS011;11207;59.512;18.050;2023-02-25T09:46:11;10.37;;;3.70;;
22080;SDS011;11207;59.512;18.050;2023-02-25T09:48:43;5.33;;;3.70;;
22080;SDS011;11207;59.512;18.050;2023-02-25T09:51:18;6.83;;;3.90;;
22080;SDS011;11207;59.512;18.050;2023-02-25T09:53:46;8.13;;;3.67;;
22080;SDS011;11207;59.512;18.050;2023-02-25T09:56:27;7.47;;;3.80;;
22080;SDS011;11207;59.512;18.050;2023-02-25T09:58:57;3.97;;;3.60;;
22080;SDS011;11207;59.512;18.050;2023-02-25T10:01:41;10.53;;;4.10;;
22080;SDS011;11207;59.512;18.050;2023-02-25T10:07:12;6.07;;;3.90;;
22080;SDS011;11207;59.512;18.050;2023-02-25T10:09:55;6.10;;;3.63;;
22080;SDS011;11207;59.512;18.050;2023-02-25T10:20:51;7.53;;;3.80;;
22080;SDS011;11207;59.512;18.050;2023-02-25T10:28:44;5.77;;;3.63;;
22080;SDS011;11207;59.512;18.050;2023-02-25T10:31:14;6.43;;;3.50;;
22080;SDS011;11207;59.512;18.050;2023-02-25T10:33:45;9.63;;;4.20;;
22080;SDS011;11207;59.512;18.050;2023-02-25T10:38:50;5.73;;;3.87;;
22080;SDS011;11207;59.512;18.050;2023-02-25T10:41:18;5.40;;;3.90;;
22080;SDS011;11207;59.512;18.050;2023-02-25T10:43:46;4.67;;;3.57;;
22080;SDS011;11207;59.512;18.050;2023-02-25T10:48:56;5.10;;;3.47;;
22080;SDS011;11207;59.512;18.050;2023-02-25T10:51:23;6.33;;;3.63;;
22080;SDS011;11207;59.512;18.050;2023-02-25T10:56:16;5.70;;;3.60;;
22080;SDS011;11207;59.512;18.050;2023-02-25T10:59:07;5.23;;;3.77;;
22080;SDS011;11207;59.512;18.050;2023-02-25T11:01:46;5.47;;;3.50;;
22080;SDS011;11207;59.512;18.050;2023-02-25T11:04:14;4.80;;;4.30;;
22080;SDS011;11207;59.512;18.050;2023-02-25T11:06:43;10.00;;;4.00;;
22080;SDS011;11207;59.512;18.050;2023-02-25T11:11:55;7.40;;;3.50;;
22080;SDS011;11207;59.512;18.050;2023-02-25T11:14:32;8.40;;;4.07;;
22080;SDS011;11207;59.512;18.050;2023-02-25T11:17:11;5.80;;;3.60;;
22080;SDS011;11207;59.512;18.050;2023-02-25T11:19:43;11.40;;;3.97;;
22080;SDS011;11207;59.512;18.050;2023-02-25T11:22:27;6.63;;;3.90;;
22080;SDS011;11207;59.512;18.050;2023-02-25T11:24:59;11.33;;;4.03;;
22080;SDS011;11207;59.512;18.050;2023-02-25T11:27:31;6.47;;;3.70;;
22080;SDS011;11207;59.512;18.050;2023-02-25T11:30:04;9.37;;;3.70;;
22080;SDS011;11207;59.512;18.050;2023-02-25T11:32:32;6.37;;;3.60;;
22080;SDS011;11207;59.512;18.050;2023-02-25T11:35:01;4.03;;;3.40;;
22080;SDS011;11207;59.512;18.050;2023-02-25T11:37:36;6.13;;;3.80;;
22080;SDS011;11207;59.512;18.050;2023-02-25T11:45:30;6.70;;;3.77;;
22080;SDS011;11207;59.512;18.050;2023-02-25T11:48:00;5.00;;;3.20;;
22080;SDS011;11207;59.512;18.050;2023-02-25T11:50:33;6.97;;;3.70;;
22080;SDS011;11207;59.512;18.050;2023-02-25T11:58:41;4.17;;;3.40;;
22080;SDS011;11207;59.512;18.050;2023-02-25T12:07:20;6.67;;;3.90;;
22080;SDS011;11207;59.512;18.050;2023-02-25T12:12:46;5.50;;;4.00;;
22080;SDS011;11207;59.512;18.050;2023-02-25T12:26:39;5.87;;;3.30;;
22080;SDS011;11207;59.512;18.050;2023-02-25T12:35:35;4.37;;;3.33;;
22080;SDS011;11207;59.512;18.050;2023-02-25T12:44:32;6.67;;;3.60;;
22080;SDS011;11207;59.512;18.050;2023-02-25T12:47:16;8.50;;;3.90;;
22080;SDS011;11207;59.512;18.050;2023-02-25T12:52:25;3.90;;;3.50;;
22080;SDS011;11207;59.512;18.050;2023-02-25T12:55:01;11.57;;;4.27;;
22080;SDS011;11207;59.512;18.050;2023-02-25T12:57:56;9.67;;;4.10;;
22080;SDS011;11207;59.512;18.050;2023-02-25T13:00:41;7.53;;;4.27;;
22080;SDS011;11207;59.512;18.050;2023-02-25T13:31:04;7.47;;;3.97;;
22080;SDS011;11207;59.512;18.050;2023-02-25T13:44:49;9.70;;;4.30;;
22080;SDS011;11207;59.512;18.050;2023-02-25T13:52:57;4.87;;;3.87;;
22080;SDS011;11207;59.512;18.050;2023-02-25T14:01:06;4.67;;;4.03;;
22080;SDS011;11207;59.512;18.050;2023-02-25T14:06:55;7.17;;;3.40;;
22080;SDS011;11207;59.512;18.050;2023-02-25T14:09:30;10.83;;;4.23;;
22080;SDS011;11207;59.512;18.050;2023-02-25T14:12:08;5.73;;;3.87;;
22080;SDS011;11207;59.512;18.050;2023-02-25T14:23:03;4.40;;;3.77;;
22080;SDS011;11207;59.512;18.050;2023-02-25T14:28:48;7.37;;;3.80;;
22080;SDS011;11207;59.512;18.050;2023-02-25T14:34:41;5.60;;;3.70;;
22080;SDS011;11207;59.512;18.050;2023-02-25T14:48:40;7.83;;;4.03;;
22080;SDS011;11207;59.512;18.050;2023-02-25T14:51:31;4.30;;;3.90;;
22080;SDS011;11207;59.512;18.050;2023-02-25T15:12:04;4.37;;;3.60;;
22080;SDS011;11207;59.512;18.050;2023-02-25T15:14:51;5.60;;;3.77;;
22080;SDS011;11207;59.512;18.050;2023-02-25T15:20:34;7.00;;;4.00;;
22080;SDS011;11207;59.512;18.050;2023-02-25T15:23:11;9.60;;;3.90;;
22080;SDS011;11207;59.512;18.050;2023-02-25T15:28:48;5.33;;;3.73;;
22080;SDS011;11207;59.512;18.050;2023-02-25T15:31:31;7.00;;;3.80;;
22080;SDS011;11207;59.512;18.050;2023-02-25T15:36:45;6.10;;;4.17;;
22080;SDS011;11207;59.512;18.050;2023-02-25T15:39:45;4.77;;;3.70;;
22080;SDS011;11207;59.512;18.050;2023-02-25T15:42:07;5.40;;;3.40;;
22080;SDS011;11207;59.512;18.050;2023-02-25T15:44:36;5.73;;;3.70;;
22080;SDS011;11207;59.512;18.050;2023-02-25T15:47:17;6.37;;;4.37;;
22080;SDS011;11207;59.512;18.050;2023-02-25T15:49:47;4.17;;;3.87;;
22080;SDS011;11207;59.512;18.050;2023-02-25T15:55:31;7.53;;;4.17;;
22080;SDS011;11207;59.512;18.050;2023-02-25T15:58:00;4.53;;;3.67;;
22080;SDS011;11207;59.512;18.050;2023-02-25T16:06:14;3.50;;;3.30;;
22080;SDS011;11207;59.512;18.050;2023-02-25T16:11:25;6.93;;;3.80;;
22080;SDS011;11207;59.512;18.050;2023-02-25T16:13:56;3.93;;;3.60;;
22080;SDS011;11207;59.512;18.050;2023-02-25T16:16:24;9.83;;;3.80;;
22080;SDS011;11207;59.512;18.050;2023-02-25T16:18:52;9.20;;;3.80;;
22080;SDS011;11207;59.512;18.050;2023-02-25T16:23:54;7.40;;;3.80;;
22080;SDS011;11207;59.512;18.050;2023-02-25T16:28:56;4.47;;;4.03;;
22080;SDS011;11207;59.512;18.050;2023-02-25T16:31:36;5.23;;;3.80;;
22080;SDS011;11207;59.512;18.050;2023-02-25T16:34:37;4.90;;;3.97;;
22080;SDS011;11207;59.512;18.050;2023-02-25T16:37:05;8.03;;;3.80;;
22080;SDS011;11207;59.512;18.050;2023-02-25T16:39:44;6.93;;;3.80;;
22080;SDS011;11207;59.512;18.050;2023-02-25T16:42:11;9.37;;;4.73;;
22080;SDS011;11207;59.512;18.050;2023-02-25T16:44:40;5.37;;;4.10;;
22080;SDS011;11207;59.512;18.050;2023-02-25T16:47:29;3.90;;;3.60;;
22080;SDS011;11207;59.512;18.050;2023-02-25T16:50:01;4.60;;;3.60;;
22080;SDS011;11207;59.512;18.050;2023-02-25T16:52:32;4.07;;;3.53;;
22080;SDS011;11207;59.512;18.050;2023-02-25T16:55:05;5.63;;;3.97;;
22080;SDS011;11207;59.512;18.050;2023-02-25T16:57:41;4.47;;;4.07;;
22080;SDS011;11207;59.512;18.050;2023-02-25T17:00:24;8.97;;;4.10;;
22080;SDS011;11207;59.512;18.050;2023-02-25T17:02:50;5.27;;;3.97;;
22080;SDS011;11207;59.512;18.050;2023-02-25T17:05:25;4.60;;;3.77;;
22080;SDS011;11207;59.512;18.050;2023-02-25T17:07:54;4.37;;;3.73;;
22080;SDS011;11207;59.512;18.050;2023-02-25T17:10:24;5.33;;;4.10;;
22080;SDS011;11207;59.512;18.050;2023-02-25T17:12:52;4.07;;;3.60;;
22080;SDS011;11207;59.512;18.050;2023-02-25T17:15:26;3.73;;;3.43;;
22080;SDS011;11207;59.512;18.050;2023-02-25T17:18:04;3.93;;;3.60;;
22080;SDS011;11207;59.512;18.050;2023-02-25T17:20:30;4.13;;;3.73;;
22080;SDS011;11207;59.512;18.050;2023-02-25T17:22:57;4.13;;;3.70;;
22080;SDS011;11207;59.512;18.050;2023-02-25T17:25:33;4.10;;;3.73;;
22080;SDS011;11207;59.512;18.050;2023-02-25T17:28:02;6.23;;;4.00;;
22080;SDS011;11207;59.512;18.050;2023-02-25T17:30:41;5.97;;;3.77;;
22080;SDS011;11207;59.512;18.050;2023-02-25T17:33:22;4.30;;;3.50;;
22080;SDS011;11207;59.512;18.050;2023-02-25T17:35:51;4.00;;;3.60;;
22080;SDS011;11207;59.512;18.050;2023-02-25T17:38:21;4.97;;;3.63;;
22080;SDS011;11207;59.512;18.050;2023-02-25T17:40:49;5.87;;;3.60;;
22080;SDS011;11207;59.512;18.050;2023-02-25T17:43:49;9.97;;;3.70;;
22080;SDS011;11207;59.512;18.050;2023-02-25T17:48:58;5.67;;;3.80;;
22080;SDS011;11207;59.512;18.050;2023-02-25T17:51:34;5.40;;;3.80;;
22080;SDS011;11207;59.512;18.050;2023-02-25T17:54:03;4.17;;;3.87;;
22080;SDS011;11207;59.512;18.050;2023-02-25T17:56:29;5.47;;;4.30;;
22080;SDS011;11207;59.512;18.050;2023-02-25T17:59:26;7.97;;;5.20;;
22080;SDS011;11207;59.512;18.050;2023-02-25T18:01:59;6.57;;;4.93;;
22080;SDS011;11207;59.512;18.050;2023-02-25T18:04:36;7.30;;;5.67;;
22080;SDS011;11207;59.512;18.050;2023-02-25T18:09:54;6.93;;;5.80;;
22080;SDS011;11207;59.512;18.050;2023-02-25T18:12:22;10.17;;;7.20;;
22080;SDS011;11207;59.512;18.050;2023-02-25T18:14:55;11.27;;;7.83;;
22080;SDS011;11207;59.512;18.050;2023-02-25T18:17:26;6.07;;;5.50;;
22080;SDS011;11207;59.512;18.050;2023-02-25T18:20:04;5.00;;;4.50;;
22080;SDS011;11207;59.512;18.050;2023-02-25T18:22:51;6.57;;;4.27;;
22080;SDS011;11207;59.512;18.050;2023-02-25T18:28:03;5.03;;;4.40;;
22080;SDS011;11207;59.512;18.050;2023-02-25T18:30:30;4.27;;;3.70;;